sensor_id;sensor_type;location;lat;lon;timestamp;P1;durP1;ratioP1;P2;durP2;ratioP2
11222;SDS011;5668;52.012;8.724;2023-07-22T00:01:49;11.20;;;10.10;;
11222;SDS011;5668;52.012;8.724;2023-07-22T00:04:17;10.80;;;9.68;;
11222;SDS011;5668;52.012;8.724;2023-07-22T00:06:44;10.35;;;9.25;;
11222;SDS011;5668;52.012;8.724;2023-07-22T00:09:12;11.18;;;9.23;;
11222;SDS011;5668;52.012;8.724;2023-07-22T00:11:39;12.98;;;9.90;;
11222;SDS011;5668;52.012;8.724;2023-07-22T00:14:06;14.40;;;9.02;;
11222;SDS011;5668;52.012;8.724;2023-07-22T00:16:34;11.45;;;9.05;;
11222;SDS011;5668;52.012;8.724;2023-07-22T00:19:02;14.38;;;9.18;;
11222;SDS011;5668;52.012;8.724;2023-07-22T00:21:30;9.00;;;8.20;;
11222;SDS011;5668;52.012;8.724;2023-07-22T00:23:59;11.07;;;8.70;;
11222;SDS011;5668;52.012;8.724;2023-07-22T00:26:26;10.90;;;8.43;;
11222;SDS011;5668;52.012;8.724;2023-07-22T00:28:54;9.38;;;8.35;;
11222;SDS011;5668;52.012;8.724;2023-07-22T00:31:21;9.52;;;8.20;;
11222;SDS011;5668;52.012;8.724;2023-07-22T00:33:48;9.68;;;8.52;;
11222;SDS011;5668;52.012;8.724;2023-07-22T00:36:15;10.70;;;8.45;;
11222;SDS011;5668;52.012;8.724;2023-07-22T00:38:44;9.90;;;8.90;;
11222;SDS011;5668;52.012;8.724;2023-07-22T00:41:11;13.38;;;8.25;;
11222;SDS011;5668;52.012;8.724;2023-07-22T00:43:38;11.18;;;8.95;;
11222;SDS011;5668;52.012;8.724;2023-07-22T00:46:05;9.75;;;8.77;;
11222;SDS011;5668;52.012;8.724;2023-07-22T00:48:33;10.23;;;8.93;;
11222;SDS011;5668;52.012;8.724;2023-07-22T00:51:00;10.27;;;8.80;;
11222;SDS011;5668;52.012;8.724;2023-07-22T00:53:28;12.53;;;9.53;;
11222;SDS011;5668;52.012;8.724;2023-07-22T00:55:56;11.13;;;8.80;;
11222;SDS011;5668;52.012;8.724;2023-07-22T00:58:24;11.50;;;9.07;;
11222;SDS011;5668;52.012;8.724;2023-07-22T01:00:51;10.13;;;8.07;;
11222;SDS011;5668;52.012;8.724;2023-07-22T01:03:18;9.98;;;8.98;;
11222;SDS011;5668;52.012;8.724;2023-07-22T01:05:46;9.85;;;8.77;;
11222;SDS011;5668;52.012;8.724;2023-07-22T01:08:16;12.48;;;8.75;;
11222;SDS011;5668;52.012;8.724;2023-07-22T01:10:44;10.30;;;9.07;;
11222;SDS011;5668;52.012;8.724;2023-07-22T01:13:12;9.85;;;8.25;;
11222;SDS011;5668;52.012;8.724;2023-07-22T01:15:40;11.95;;;9.30;;
11222;SDS011;5668;52.012;8.724;2023-07-22T01:18:08;14.27;;;9.27;;
11222;SDS011;5668;52.012;8.724;2023-07-22T01:20:36;9.60;;;8.43;;
11222;SDS011;5668;52.012;8.724;2023-07-22T01:23:05;12.17;;;9.00;;
11222;SDS011;5668;52.012;8.724;2023-07-22T01:25:33;12.00;;;9.10;;
11222;SDS011;5668;52.012;8.724;2023-07-22T01:28:00;11.20;;;8.35;;
11222;SDS011;5668;52.012;8.724;2023-07-22T01:30:27;11.52;;;9.05;;
11222;SDS011;5668;52.012;8.724;2023-07-22T01:32:54;11.57;;;8.68;;
11222;SDS011;5668;52.012;8.724;2023-07-22T01:35:22;9.60;;;8.67;;
11222;SDS011;5668;52.012;8.724;2023-07-22T01:37:49;9.30;;;8.30;;
11222;SDS011;5668;52.012;8.724;2023-07-22T01:40:18;10.10;;;8.80;;
11222;SDS011;5668;52.012;8.724;2023-07-22T01:42:48;10.43;;;9.07;;
11222;SDS011;5668;52.012;8.724;2023-07-22T01:45:15;9.85;;;8.63;;
11222;SDS011;5668;52.012;8.724;2023-07-22T01:47:43;11.35;;;8.88;;
11222;SDS011;5668;52.012;8.724;2023-07-22T01:50:10;10.67;;;9.67;;
11222;SDS011;5668;52.012;8.724;2023-07-22T01:52:38;10.37;;;8.43;;
11222;SDS011;5668;52.012;8.724;2023-07-22T01:55:05;9.87;;;8.83;;
11222;SDS011;5668;52.012;8.724;2023-07-22T01:57:37;10.93;;;8.07;;
11222;SDS011;5668;52.012;8.724;2023-07-22T02:00:12;11.23;;;8.45;;
11222;SDS011;5668;52.012;8.724;2023-07-22T02:02:40;11.27;;;9.00;;
11222;SDS011;5668;52.012;8.724;2023-07-22T02:05:08;9.53;;;8.27;;
11222;SDS011;5668;52.012;8.724;2023-07-22T02:07:36;9.30;;;8.13;;
11222;SDS011;5668;52.012;8.724;2023-07-22T02:10:04;10.60;;;7.78;;
11222;SDS011;5668;52.012;8.724;2023-07-22T02:12:32;12.48;;;8.43;;
11222;SDS011;5668;52.012;8.724;2023-07-22T02:15:01;9.27;;;8.27;;
11222;SDS011;5668;52.012;8.724;2023-07-22T02:17:28;9.02;;;8.13;;
11222;SDS011;5668;52.012;8.724;2023-07-22T02:19:56;9.13;;;7.78;;
11222;SDS011;5668;52.012;8.724;2023-07-22T02:22:23;9.37;;;8.00;;
11222;SDS011;5668;52.012;8.724;2023-07-22T02:24:51;10.80;;;7.73;;
11222;SDS011;5668;52.012;8.724;2023-07-22T02:27:18;10.03;;;7.93;;
11222;SDS011;5668;52.012;8.724;2023-07-22T02:29:45;10.10;;;7.97;;
11222;SDS011;5668;52.012;8.724;2023-07-22T02:32:13;9.88;;;7.70;;
11222;SDS011;5668;52.012;8.724;2023-07-22T02:34:41;11.03;;;8.50;;
11222;SDS011;5668;52.012;8.724;2023-07-22T02:37:08;10.63;;;8.87;;
11222;SDS011;5668;52.012;8.724;2023-07-22T02:39:35;9.10;;;8.20;;
11222;SDS011;5668;52.012;8.724;2023-07-22T02:42:02;11.13;;;8.88;;
11222;SDS011;5668;52.012;8.724;2023-07-22T02:44:30;10.35;;;8.23;;
11222;SDS011;5668;52.012;8.724;2023-07-22T02:46:57;13.63;;;8.67;;
11222;SDS011;5668;52.012;8.724;2023-07-22T02:49:26;12.52;;;8.63;;
11222;SDS011;5668;52.012;8.724;2023-07-22T02:51:53;11.50;;;7.73;;
11222;SDS011;5668;52.012;8.724;2023-07-22T02:54:21;10.27;;;7.65;;
11222;SDS011;5668;52.012;8.724;2023-07-22T02:56:48;12.50;;;7.88;;
11222;SDS011;5668;52.012;8.724;2023-07-22T02:59:15;9.17;;;7.60;;
11222;SDS011;5668;52.012;8.724;2023-07-22T03:01:42;8.95;;;7.95;;
11222;SDS011;5668;52.012;8.724;2023-07-22T03:04:10;10.33;;;8.40;;
11222;SDS011;5668;52.012;8.724;2023-07-22T03:06:39;12.20;;;8.77;;
11222;SDS011;5668;52.012;8.724;2023-07-22T03:09:07;9.90;;;8.00;;
11222;SDS011;5668;52.012;8.724;2023-07-22T03:11:36;10.20;;;8.50;;
11222;SDS011;5668;52.012;8.724;2023-07-22T03:14:03;8.95;;;7.75;;
11222;SDS011;5668;52.012;8.724;2023-07-22T03:16:30;12.73;;;8.77;;
11222;SDS011;5668;52.012;8.724;2023-07-22T03:18:57;10.93;;;8.75;;
11222;SDS011;5668;52.012;8.724;2023-07-22T03:21:25;10.55;;;9.18;;
11222;SDS011;5668;52.012;8.724;2023-07-22T03:23:53;12.23;;;8.85;;
11222;SDS011;5668;52.012;8.724;2023-07-22T03:26:20;11.90;;;9.32;;
11222;SDS011;5668;52.012;8.724;2023-07-22T03:28:48;17.15;;;10.00;;
11222;SDS011;5668;52.012;8.724;2023-07-22T03:31:15;14.50;;;10.32;;
11222;SDS011;5668;52.012;8.724;2023-07-22T03:33:42;14.20;;;10.40;;
11222;SDS011;5668;52.012;8.724;2023-07-22T03:36:11;12.50;;;9.38;;
11222;SDS011;5668;52.012;8.724;2023-07-22T03:38:38;12.00;;;9.18;;
11222;SDS011;5668;52.012;8.724;2023-07-22T03:41:07;11.10;;;9.03;;
11222;SDS011;5668;52.012;8.724;2023-07-22T03:43:34;14.70;;;10.35;;
11222;SDS011;5668;52.012;8.724;2023-07-22T03:46:01;11.73;;;9.90;;
11222;SDS011;5668;52.012;8.724;2023-07-22T03:48:29;12.30;;;9.70;;
11222;SDS011;5668;52.012;8.724;2023-07-22T03:50:56;11.50;;;10.30;;
11222;SDS011;5668;52.012;8.724;2023-07-22T03:53:23;12.30;;;9.98;;
11222;SDS011;5668;52.012;8.724;2023-07-22T03:55:50;13.07;;;11.23;;
11222;SDS011;5668;52.012;8.724;2023-07-22T03:58:19;13.23;;;10.43;;
11222;SDS011;5668;52.012;8.724;2023-07-22T04:00:47;13.85;;;10.85;;
11222;SDS011;5668;52.012;8.724;2023-07-22T04:03:18;13.13;;;10.33;;
11222;SDS011;5668;52.012;8.724;2023-07-22T04:05:52;12.80;;;10.60;;
11222;SDS011;5668;52.012;8.724;2023-07-22T04:08:20;14.18;;;10.80;;
11222;SDS011;5668;52.012;8.724;2023-07-22T04:10:51;11.68;;;10.40;;
11222;SDS011;5668;52.012;8.724;2023-07-22T04:13:19;12.83;;;10.57;;
11222;SDS011;5668;52.012;8.724;2023-07-22T04:15:47;16.48;;;10.52;;
11222;SDS011;5668;52.012;8.724;2023-07-22T04:18:14;12.70;;;10.48;;
11222;SDS011;5668;52.012;8.724;2023-07-22T04:20:42;14.65;;;11.27;;
11222;SDS011;5668;52.012;8.724;2023-07-22T04:23:10;12.57;;;10.33;;
11222;SDS011;5668;52.012;8.724;2023-07-22T04:25:38;13.27;;;10.10;;
11222;SDS011;5668;52.012;8.724;2023-07-22T04:28:06;14.60;;;10.70;;
11222;SDS011;5668;52.012;8.724;2023-07-22T04:30:35;13.60;;;10.83;;
11222;SDS011;5668;52.012;8.724;2023-07-22T04:33:02;13.07;;;10.68;;
11222;SDS011;5668;52.012;8.724;2023-07-22T04:35:30;12.13;;;9.90;;
11222;SDS011;5668;52.012;8.724;2023-07-22T04:38:00;12.87;;;10.70;;
11222;SDS011;5668;52.012;8.724;2023-07-22T04:40:28;12.73;;;10.52;;
11222;SDS011;5668;52.012;8.724;2023-07-22T04:42:55;12.20;;;10.00;;
11222;SDS011;5668;52.012;8.724;2023-07-22T04:45:23;13.10;;;10.65;;
11222;SDS011;5668;52.012;8.724;2023-07-22T04:47:52;13.48;;;10.10;;
11222;SDS011;5668;52.012;8.724;2023-07-22T04:50:19;13.75;;;10.82;;
11222;SDS011;5668;52.012;8.724;2023-07-22T04:52:47;13.18;;;10.32;;
11222;SDS011;5668;52.012;8.724;2023-07-22T04:55:14;13.00;;;10.63;;
11222;SDS011;5668;52.012;8.724;2023-07-22T04:57:42;12.17;;;10.00;;
11222;SDS011;5668;52.012;8.724;2023-07-22T05:00:10;13.88;;;9.77;;
11222;SDS011;5668;52.012;8.724;2023-07-22T05:02:39;12.10;;;10.07;;
11222;SDS011;5668;52.012;8.724;2023-07-22T05:05:08;11.18;;;9.63;;
11222;SDS011;5668;52.012;8.724;2023-07-22T05:07:36;11.82;;;9.93;;
11222;SDS011;5668;52.012;8.724;2023-07-22T05:10:03;12.07;;;9.68;;
11222;SDS011;5668;52.012;8.724;2023-07-22T05:12:37;10.73;;;8.75;;
11222;SDS011;5668;52.012;8.724;2023-07-22T05:15:04;10.63;;;9.35;;
11222;SDS011;5668;52.012;8.724;2023-07-22T05:17:32;14.48;;;9.80;;
11222;SDS011;5668;52.012;8.724;2023-07-22T05:19:59;11.65;;;9.57;;
11222;SDS011;5668;52.012;8.724;2023-07-22T05:22:28;11.55;;;9.90;;
11222;SDS011;5668;52.012;8.724;2023-07-22T05:24:55;11.70;;;8.90;;
11222;SDS011;5668;52.012;8.724;2023-07-22T05:27:23;12.48;;;9.25;;
11222;SDS011;5668;52.012;8.724;2023-07-22T05:29:51;13.25;;;9.65;;
11222;SDS011;5668;52.012;8.724;2023-07-22T05:32:18;10.93;;;9.25;;
11222;SDS011;5668;52.012;8.724;2023-07-22T05:34:45;10.55;;;9.15;;
11222;SDS011;5668;52.012;8.724;2023-07-22T05:37:13;13.65;;;9.25;;
11222;SDS011;5668;52.012;8.724;2023-07-22T05:39:41;11.45;;;9.25;;
11222;SDS011;5668;52.012;8.724;2023-07-22T05:42:08;10.90;;;9.60;;
11222;SDS011;5668;52.012;8.724;2023-07-22T05:44:36;12.32;;;9.32;;
11222;SDS011;5668;52.012;8.724;2023-07-22T05:47:03;12.23;;;10.40;;
11222;SDS011;5668;52.012;8.724;2023-07-22T05:49:31;10.98;;;8.90;;
11222;SDS011;5668;52.012;8.724;2023-07-22T05:51:58;13.73;;;9.68;;
11222;SDS011;5668;52.012;8.724;2023-07-22T05:54:25;10.63;;;9.30;;
11222;SDS011;5668;52.012;8.724;2023-07-22T05:56:53;14.82;;;9.85;;
11222;SDS011;5668;52.012;8.724;2023-07-22T05:59:21;10.18;;;9.18;;
11222;SDS011;5668;52.012;8.724;2023-07-22T06:01:48;12.00;;;9.30;;
11222;SDS011;5668;52.012;8.724;2023-07-22T06:04:16;12.17;;;9.77;;
11222;SDS011;5668;52.012;8.724;2023-07-22T06:06:44;11.73;;;8.65;;
11222;SDS011;5668;52.012;8.724;2023-07-22T06:09:11;11.50;;;8.73;;
11222;SDS011;5668;52.012;8.724;2023-07-22T06:11:38;10.18;;;9.18;;
11222;SDS011;5668;52.012;8.724;2023-07-22T06:14:06;10.32;;;9.25;;
11222;SDS011;5668;52.012;8.724;2023-07-22T06:16:34;9.87;;;8.80;;
11222;SDS011;5668;52.012;8.724;2023-07-22T06:19:02;11.35;;;9.77;;
11222;SDS011;5668;52.012;8.724;2023-07-22T06:21:30;13.13;;;9.88;;
11222;SDS011;5668;52.012;8.724;2023-07-22T06:23:57;13.00;;;9.85;;
11222;SDS011;5668;52.012;8.724;2023-07-22T06:26:24;13.43;;;10.27;;
11222;SDS011;5668;52.012;8.724;2023-07-22T06:28:51;13.07;;;9.82;;
11222;SDS011;5668;52.012;8.724;2023-07-22T06:31:20;13.02;;;10.30;;
11222;SDS011;5668;52.012;8.724;2023-07-22T06:33:47;13.20;;;10.40;;
11222;SDS011;5668;52.012;8.724;2023-07-22T06:36:14;11.77;;;10.27;;
11222;SDS011;5668;52.012;8.724;2023-07-22T06:38:42;10.77;;;9.63;;
11222;SDS011;5668;52.012;8.724;2023-07-22T06:41:09;10.95;;;9.80;;
11222;SDS011;5668;52.012;8.724;2023-07-22T06:43:37;13.30;;;10.73;;
11222;SDS011;5668;52.012;8.724;2023-07-22T06:46:05;12.52;;;10.00;;
11222;SDS011;5668;52.012;8.724;2023-07-22T06:48:33;12.82;;;9.65;;
11222;SDS011;5668;52.012;8.724;2023-07-22T06:51:00;14.40;;;10.57;;
11222;SDS011;5668;52.012;8.724;2023-07-22T06:53:28;12.70;;;10.43;;
11222;SDS011;5668;52.012;8.724;2023-07-22T06:55:56;11.80;;;10.57;;
11222;SDS011;5668;52.012;8.724;2023-07-22T06:58:23;14.13;;;10.55;;
11222;SDS011;5668;52.012;8.724;2023-07-22T07:00:52;12.25;;;10.02;;
11222;SDS011;5668;52.012;8.724;2023-07-22T07:03:20;11.75;;;10.45;;
11222;SDS011;5668;52.012;8.724;2023-07-22T07:05:52;10.57;;;9.50;;
11222;SDS011;5668;52.012;8.724;2023-07-22T07:08:20;11.30;;;9.55;;
11222;SDS011;5668;52.012;8.724;2023-07-22T07:10:48;14.20;;;9.65;;
11222;SDS011;5668;52.012;8.724;2023-07-22T07:13:15;12.90;;;10.45;;
11222;SDS011;5668;52.012;8.724;2023-07-22T07:15:45;10.68;;;9.60;;
11222;SDS011;5668;52.012;8.724;2023-07-22T07:18:14;11.43;;;10.23;;
11222;SDS011;5668;52.012;8.724;2023-07-22T07:20:42;13.07;;;10.18;;
11222;SDS011;5668;52.012;8.724;2023-07-22T07:23:12;11.35;;;9.73;;
11222;SDS011;5668;52.012;8.724;2023-07-22T07:25:41;12.07;;;10.10;;
11222;SDS011;5668;52.012;8.724;2023-07-22T07:28:08;14.23;;;10.43;;
11222;SDS011;5668;52.012;8.724;2023-07-22T07:30:36;13.75;;;10.40;;
11222;SDS011;5668;52.012;8.724;2023-07-22T07:33:03;11.38;;;9.98;;
11222;SDS011;5668;52.012;8.724;2023-07-22T07:35:30;10.75;;;9.57;;
11222;SDS011;5668;52.012;8.724;2023-07-22T07:37:58;11.15;;;9.93;;
11222;SDS011;5668;52.012;8.724;2023-07-22T07:40:26;11.77;;;9.73;;
11222;SDS011;5668;52.012;8.724;2023-07-22T07:42:53;11.15;;;9.82;;
11222;SDS011;5668;52.012;8.724;2023-07-22T07:45:21;13.88;;;9.57;;
11222;SDS011;5668;52.012;8.724;2023-07-22T07:47:48;11.52;;;9.95;;
11222;SDS011;5668;52.012;8.724;2023-07-22T07:50:16;14.57;;;9.23;;
11222;SDS011;5668;52.012;8.724;2023-07-22T07:52:44;12.13;;;9.27;;
11222;SDS011;5668;52.012;8.724;2023-07-22T07:55:11;11.85;;;9.63;;
11222;SDS011;5668;52.012;8.724;2023-07-22T07:57:39;12.77;;;10.40;;
11222;SDS011;5668;52.012;8.724;2023-07-22T08:00:07;11.52;;;9.57;;
11222;SDS011;5668;52.012;8.724;2023-07-22T08:02:35;12.10;;;10.05;;
11222;SDS011;5668;52.012;8.724;2023-07-22T08:05:02;12.32;;;10.00;;
11222;SDS011;5668;52.012;8.724;2023-07-22T08:07:30;13.45;;;10.10;;
11222;SDS011;5668;52.012;8.724;2023-07-22T08:09:57;11.07;;;9.15;;
11222;SDS011;5668;52.012;8.724;2023-07-22T08:12:25;10.73;;;9.63;;
11222;SDS011;5668;52.012;8.724;2023-07-22T08:14:54;11.55;;;9.35;;
11222;SDS011;5668;52.012;8.724;2023-07-22T08:17:21;11.30;;;9.68;;
11222;SDS011;5668;52.012;8.724;2023-07-22T08:19:48;10.88;;;9.50;;
11222;SDS011;5668;52.012;8.724;2023-07-22T08:22:16;14.13;;;11.18;;
11222;SDS011;5668;52.012;8.724;2023-07-22T08:24:43;12.10;;;9.57;;
11222;SDS011;5668;52.012;8.724;2023-07-22T08:27:10;11.05;;;9.38;;
11222;SDS011;5668;52.012;8.724;2023-07-22T08:29:37;11.45;;;9.50;;
11222;SDS011;5668;52.012;8.724;2023-07-22T08:32:06;11.57;;;9.45;;
11222;SDS011;5668;52.012;8.724;2023-07-22T08:34:33;11.88;;;9.40;;
11222;SDS011;5668;52.012;8.724;2023-07-22T08:37:00;11.15;;;9.63;;
11222;SDS011;5668;52.012;8.724;2023-07-22T08:39:28;11.43;;;10.07;;
11222;SDS011;5668;52.012;8.724;2023-07-22T08:41:55;11.23;;;9.57;;
11222;SDS011;5668;52.012;8.724;2023-07-22T08:44:25;12.15;;;8.85;;
11222;SDS011;5668;52.012;8.724;2023-07-22T08:46:59;11.10;;;8.90;;
11222;SDS011;5668;52.012;8.724;2023-07-22T08:49:28;11.88;;;9.20;;
11222;SDS011;5668;52.012;8.724;2023-07-22T08:51:56;10.48;;;8.85;;
11222;SDS011;5668;52.012;8.724;2023-07-22T08:54:23;10.20;;;8.63;;
11222;SDS011;5668;52.012;8.724;2023-07-22T08:56:51;10.85;;;9.07;;
11222;SDS011;5668;52.012;8.724;2023-07-22T08:59:19;10.40;;;8.98;;
11222;SDS011;5668;52.012;8.724;2023-07-22T09:01:47;12.43;;;9.43;;
11222;SDS011;5668;52.012;8.724;2023-07-22T09:04:16;12.38;;;9.27;;
11222;SDS011;5668;52.012;8.724;2023-07-22T09:06:46;11.10;;;8.93;;
11222;SDS011;5668;52.012;8.724;2023-07-22T09:09:14;10.90;;;8.77;;
11222;SDS011;5668;52.012;8.724;2023-07-22T09:11:41;10.93;;;8.95;;
11222;SDS011;5668;52.012;8.724;2023-07-22T09:14:11;10.38;;;8.63;;
11222;SDS011;5668;52.012;8.724;2023-07-22T09:16:39;9.90;;;8.52;;
11222;SDS011;5668;52.012;8.724;2023-07-22T09:19:07;11.02;;;8.73;;
11222;SDS011;5668;52.012;8.724;2023-07-22T09:21:34;11.05;;;9.13;;
11222;SDS011;5668;52.012;8.724;2023-07-22T09:24:03;12.05;;;9.77;;
11222;SDS011;5668;52.012;8.724;2023-07-22T09:26:47;13.05;;;9.35;;
11222;SDS011;5668;52.012;8.724;2023-07-22T09:29:14;11.48;;;9.05;;
11222;SDS011;5668;52.012;8.724;2023-07-22T09:31:48;11.50;;;9.43;;
11222;SDS011;5668;52.012;8.724;2023-07-22T09:34:17;11.63;;;9.18;;
11222;SDS011;5668;52.012;8.724;2023-07-22T09:36:49;9.57;;;8.63;;
11222;SDS011;5668;52.012;8.724;2023-07-22T09:39:19;12.27;;;9.23;;
11222;SDS011;5668;52.012;8.724;2023-07-22T09:41:46;10.57;;;8.25;;
11222;SDS011;5668;52.012;8.724;2023-07-22T09:44:13;12.00;;;9.05;;
11222;SDS011;5668;52.012;8.724;2023-07-22T09:46:41;10.82;;;9.23;;
11222;SDS011;5668;52.012;8.724;2023-07-22T09:49:12;11.13;;;9.55;;
11222;SDS011;5668;52.012;8.724;2023-07-22T09:51:41;11.77;;;9.95;;
11222;SDS011;5668;52.012;8.724;2023-07-22T09:54:08;10.70;;;8.82;;
11222;SDS011;5668;52.012;8.724;2023-07-22T09:56:44;10.18;;;8.52;;
11222;SDS011;5668;52.012;8.724;2023-07-22T09:59:13;10.02;;;8.98;;
11222;SDS011;5668;52.012;8.724;2023-07-22T10:01:41;9.52;;;8.50;;
11222;SDS011;5668;52.012;8.724;2023-07-22T10:04:12;10.30;;;9.10;;
11222;SDS011;5668;52.012;8.724;2023-07-22T10:06:41;10.45;;;8.75;;
11222;SDS011;5668;52.012;8.724;2023-07-22T10:09:10;9.90;;;8.30;;
11222;SDS011;5668;52.012;8.724;2023-07-22T10:11:39;8.98;;;8.07;;
11222;SDS011;5668;52.012;8.724;2023-07-22T10:14:07;8.07;;;7.25;;
11222;SDS011;5668;52.012;8.724;2023-07-22T10:16:37;8.88;;;7.60;;
11222;SDS011;5668;52.012;8.724;2023-07-22T10:19:04;8.30;;;7.35;;
11222;SDS011;5668;52.012;8.724;2023-07-22T10:21:33;8.98;;;7.50;;
11222;SDS011;5668;52.012;8.724;2023-07-22T10:24:01;8.93;;;7.15;;
11222;SDS011;5668;52.012;8.724;2023-07-22T10:26:29;8.07;;;6.63;;
11222;SDS011;5668;52.012;8.724;2023-07-22T10:28:57;7.85;;;6.53;;
11222;SDS011;5668;52.012;8.724;2023-07-22T10:31:26;7.22;;;6.38;;
11222;SDS011;5668;52.012;8.724;2023-07-22T10:33:57;9.68;;;7.07;;
11222;SDS011;5668;52.012;8.724;2023-07-22T10:36:24;7.28;;;6.50;;
11222;SDS011;5668;52.012;8.724;2023-07-22T10:38:56;6.88;;;6.18;;
11222;SDS011;5668;52.012;8.724;2023-07-22T10:41:25;7.10;;;6.40;;
11222;SDS011;5668;52.012;8.724;2023-07-22T10:43:56;7.22;;;6.50;;
11222;SDS011;5668;52.012;8.724;2023-07-22T10:46:32;6.95;;;6.28;;
11222;SDS011;5668;52.012;8.724;2023-07-22T10:49:07;7.70;;;6.30;;
11222;SDS011;5668;52.012;8.724;2023-07-22T10:51:37;7.53;;;6.82;;
11222;SDS011;5668;52.012;8.724;2023-07-22T10:54:10;6.85;;;6.25;;
11222;SDS011;5668;52.012;8.724;2023-07-22T10:56:40;8.43;;;6.70;;
11222;SDS011;5668;52.012;8.724;2023-07-22T10:59:09;7.30;;;6.10;;
11222;SDS011;5668;52.012;8.724;2023-07-22T11:01:39;7.70;;;6.93;;
11222;SDS011;5668;52.012;8.724;2023-07-22T11:04:11;7.93;;;7.13;;
11222;SDS011;5668;52.012;8.724;2023-07-22T11:06:51;7.70;;;6.90;;
11222;SDS011;5668;52.012;8.724;2023-07-22T11:09:35;6.80;;;6.10;;
11222;SDS011;5668;52.012;8.724;2023-07-22T11:12:05;7.72;;;6.28;;
11222;SDS011;5668;52.012;8.724;2023-07-22T11:14:34;6.65;;;6.05;;
11222;SDS011;5668;52.012;8.724;2023-07-22T11:17:06;6.50;;;5.78;;
11222;SDS011;5668;52.012;8.724;2023-07-22T11:19:34;6.70;;;6.10;;
11222;SDS011;5668;52.012;8.724;2023-07-22T11:22:01;6.47;;;5.93;;
11222;SDS011;5668;52.012;8.724;2023-07-22T11:24:31;6.97;;;6.20;;
11222;SDS011;5668;52.012;8.724;2023-07-22T11:27:01;8.02;;;6.30;;
11222;SDS011;5668;52.012;8.724;2023-07-22T11:29:30;6.05;;;5.45;;
11222;SDS011;5668;52.012;8.724;2023-07-22T11:31:57;6.60;;;5.82;;
11222;SDS011;5668;52.012;8.724;2023-07-22T11:34:26;6.60;;;5.55;;
11222;SDS011;5668;52.012;8.724;2023-07-22T11:36:54;7.20;;;5.55;;
11222;SDS011;5668;52.012;8.724;2023-07-22T11:39:23;6.40;;;5.78;;
11222;SDS011;5668;52.012;8.724;2023-07-22T11:41:51;7.65;;;6.00;;
11222;SDS011;5668;52.012;8.724;2023-07-22T11:44:19;6.25;;;5.65;;
11222;SDS011;5668;52.012;8.724;2023-07-22T11:46:51;6.88;;;6.03;;
11222;SDS011;5668;52.012;8.724;2023-07-22T11:49:23;6.15;;;5.53;;
11222;SDS011;5668;52.012;8.724;2023-07-22T11:51:52;5.95;;;5.35;;
11222;SDS011;5668;52.012;8.724;2023-07-22T11:54:21;6.18;;;5.57;;
11222;SDS011;5668;52.012;8.724;2023-07-22T11:56:49;7.18;;;6.25;;
11222;SDS011;5668;52.012;8.724;2023-07-22T11:59:16;6.57;;;5.90;;
11222;SDS011;5668;52.012;8.724;2023-07-22T12:01:57;6.63;;;6.00;;
11222;SDS011;5668;52.012;8.724;2023-07-22T12:04:27;6.57;;;5.85;;
11222;SDS011;5668;52.012;8.724;2023-07-22T12:06:55;6.20;;;5.60;;
11222;SDS011;5668;52.012;8.724;2023-07-22T12:09:23;6.00;;;5.40;;
11222;SDS011;5668;52.012;8.724;2023-07-22T12:11:54;5.53;;;4.95;;
11222;SDS011;5668;52.012;8.724;2023-07-22T12:14:23;6.28;;;5.68;;
11222;SDS011;5668;52.012;8.724;2023-07-22T12:16:53;6.32;;;5.47;;
11222;SDS011;5668;52.012;8.724;2023-07-22T12:19:23;5.82;;;5.32;;
11222;SDS011;5668;52.012;8.724;2023-07-22T12:21:53;5.97;;;5.38;;
11222;SDS011;5668;52.012;8.724;2023-07-22T12:24:21;6.20;;;5.60;;
11222;SDS011;5668;52.012;8.724;2023-07-22T12:26:49;6.05;;;5.47;;
11222;SDS011;5668;52.012;8.724;2023-07-22T12:29:16;5.22;;;4.78;;
11222;SDS011;5668;52.012;8.724;2023-07-22T12:31:43;5.57;;;5.03;;
11222;SDS011;5668;52.012;8.724;2023-07-22T12:34:10;5.40;;;4.85;;
11222;SDS011;5668;52.012;8.724;2023-07-22T12:36:37;5.60;;;4.88;;
11222;SDS011;5668;52.012;8.724;2023-07-22T12:39:07;5.10;;;4.60;;
11222;SDS011;5668;52.012;8.724;2023-07-22T12:41:34;4.93;;;4.43;;
11222;SDS011;5668;52.012;8.724;2023-07-22T12:44:01;5.53;;;4.90;;
11222;SDS011;5668;52.012;8.724;2023-07-22T12:46:29;5.03;;;4.60;;
11222;SDS011;5668;52.012;8.724;2023-07-22T12:48:56;5.63;;;5.03;;
11222;SDS011;5668;52.012;8.724;2023-07-22T12:51:23;5.05;;;4.40;;
11222;SDS011;5668;52.012;8.724;2023-07-22T12:53:51;5.63;;;5.07;;
11222;SDS011;5668;52.012;8.724;2023-07-22T12:56:19;4.80;;;4.40;;
11222;SDS011;5668;52.012;8.724;2023-07-22T12:58:46;5.35;;;4.85;;
11222;SDS011;5668;52.012;8.724;2023-07-22T13:01:13;5.13;;;4.60;;
11222;SDS011;5668;52.012;8.724;2023-07-22T13:03:41;5.10;;;4.60;;
11222;SDS011;5668;52.012;8.724;2023-07-22T13:06:08;5.35;;;4.70;;
11222;SDS011;5668;52.012;8.724;2023-07-22T13:08:35;4.88;;;4.47;;
11222;SDS011;5668;52.012;8.724;2023-07-22T13:11:03;4.90;;;4.40;;
11222;SDS011;5668;52.012;8.724;2023-07-22T13:13:32;4.63;;;4.22;;
11222;SDS011;5668;52.012;8.724;2023-07-22T13:15:59;4.38;;;3.97;;
11222;SDS011;5668;52.012;8.724;2023-07-22T13:18:26;4.82;;;4.43;;
11222;SDS011;5668;52.012;8.724;2023-07-22T13:20:53;5.53;;;4.35;;
11222;SDS011;5668;52.012;8.724;2023-07-22T13:23:20;6.43;;;4.15;;
11222;SDS011;5668;52.012;8.724;2023-07-22T13:25:48;4.45;;;4.10;;
11222;SDS011;5668;52.012;8.724;2023-07-22T13:28:15;5.50;;;4.05;;
11222;SDS011;5668;52.012;8.724;2023-07-22T13:30:42;4.22;;;3.83;;
11222;SDS011;5668;52.012;8.724;2023-07-22T13:33:09;4.32;;;3.78;;
11222;SDS011;5668;52.012;8.724;2023-07-22T13:35:37;4.68;;;4.28;;
11222;SDS011;5668;52.012;8.724;2023-07-22T13:38:04;4.75;;;4.05;;
11222;SDS011;5668;52.012;8.724;2023-07-22T13:40:31;4.82;;;4.07;;
11222;SDS011;5668;52.012;8.724;2023-07-22T13:42:58;3.75;;;3.42;;
11222;SDS011;5668;52.012;8.724;2023-07-22T13:45:26;4.00;;;3.60;;
11222;SDS011;5668;52.012;8.724;2023-07-22T13:47:54;4.43;;;4.03;;
11222;SDS011;5668;52.012;8.724;2023-07-22T13:50:21;4.03;;;3.65;;
11222;SDS011;5668;52.012;8.724;2023-07-22T13:52:49;3.97;;;3.60;;
11222;SDS011;5668;52.012;8.724;2023-07-22T13:55:16;4.25;;;3.78;;
11222;SDS011;5668;52.012;8.724;2023-07-22T13:57:43;4.75;;;3.72;;
11222;SDS011;5668;52.012;8.724;2023-07-22T14:00:11;4.15;;;3.75;;
11222;SDS011;5668;52.012;8.724;2023-07-22T14:02:39;3.65;;;3.35;;
11222;SDS011;5668;52.012;8.724;2023-07-22T14:05:08;4.22;;;3.80;;
11222;SDS011;5668;52.012;8.724;2023-07-22T14:07:36;3.70;;;3.40;;
11222;SDS011;5668;52.012;8.724;2023-07-22T14:10:04;4.25;;;3.42;;
11222;SDS011;5668;52.012;8.724;2023-07-22T14:12:33;4.40;;;4.00;;
11222;SDS011;5668;52.012;8.724;2023-07-22T14:15:00;4.38;;;3.63;;
11222;SDS011;5668;52.012;8.724;2023-07-22T14:17:29;5.25;;;3.85;;
11222;SDS011;5668;52.012;8.724;2023-07-22T14:19:57;5.30;;;3.70;;
11222;SDS011;5668;52.012;8.724;2023-07-22T14:22:25;5.38;;;3.88;;
11222;SDS011;5668;52.012;8.724;2023-07-22T14:24:53;4.53;;;3.85;;
11222;SDS011;5668;52.012;8.724;2023-07-22T14:27:20;4.20;;;3.80;;
11222;SDS011;5668;52.012;8.724;2023-07-22T14:29:47;4.05;;;3.65;;
11222;SDS011;5668;52.012;8.724;2023-07-22T14:32:14;3.83;;;3.53;;
11222;SDS011;5668;52.012;8.724;2023-07-22T14:34:42;4.25;;;3.63;;
11222;SDS011;5668;52.012;8.724;2023-07-22T14:37:09;4.10;;;3.80;;
11222;SDS011;5668;52.012;8.724;2023-07-22T14:39:37;5.63;;;3.30;;
11222;SDS011;5668;52.012;8.724;2023-07-22T14:42:05;3.55;;;3.28;;
11222;SDS011;5668;52.012;8.724;2023-07-22T14:44:32;4.18;;;3.78;;
11222;SDS011;5668;52.012;8.724;2023-07-22T14:46:59;4.47;;;2.70;;
11222;SDS011;5668;52.012;8.724;2023-07-22T14:49:27;4.93;;;3.60;;
11222;SDS011;5668;52.012;8.724;2023-07-22T14:51:54;4.10;;;3.70;;
11222;SDS011;5668;52.012;8.724;2023-07-22T14:54:21;4.13;;;3.75;;
11222;SDS011;5668;52.012;8.724;2023-07-22T14:56:50;4.53;;;3.28;;